sensor_id;sensor_type;location;lat;lon;timestamp;P1;durP1;ratioP1;P2;durP2;ratioP2
40931;SDS011;36257;46.052;12.540;2022-12-07T00:01:20;4.40;;;4.00;;
40931;SDS011;36257;46.052;12.540;2022-12-07T00:03:48;4.53;;;4.30;;
40931;SDS011;36257;46.052;12.540;2022-12-07T00:06:18;5.77;;;5.27;;
40931;SDS011;36257;46.052;12.540;2022-12-07T00:08:44;4.50;;;3.60;;
40931;SDS011;36257;46.052;12.540;2022-12-07T00:11:12;5.95;;;3.40;;
40931;SDS011;36257;46.052;12.540;2022-12-07T00:13:42;4.07;;;3.87;;
40931;SDS011;36257;46.052;12.540;2022-12-07T00:16:10;3.57;;;3.37;;
40931;SDS011;36257;46.052;12.540;2022-12-07T00:18:36;5.43;;;4.93;;
40931;SDS011;36257;46.052;12.540;2022-12-07T00:21:07;3.47;;;3.27;;
40931;SDS011;36257;46.052;12.540;2022-12-07T00:23:34;4.63;;;4.33;;
40931;SDS011;36257;46.052;12.540;2022-12-07T00:26:03;3.67;;;3.37;;
40931;SDS011;36257;46.052;12.540;2022-12-07T00:28:34;3.97;;;3.77;;
40931;SDS011;36257;46.052;12.540;2022-12-07T00:31:10;4.20;;;4.00;;
40931;SDS011;36257;46.052;12.540;2022-12-07T00:33:37;3.80;;;3.60;;
40931;SDS011;36257;46.052;12.540;2022-12-07T00:36:05;3.97;;;3.67;;
40931;SDS011;36257;46.052;12.540;2022-12-07T00:38:34;3.90;;;3.70;;
40931;SDS011;36257;46.052;12.540;2022-12-07T00:41:02;3.83;;;3.63;;
40931;SDS011;36257;46.052;12.540;2022-12-07T00:43:30;3.63;;;3.07;;
40931;SDS011;36257;46.052;12.540;2022-12-07T00:45:56;3.70;;;3.40;;
40931;SDS011;36257;46.052;12.540;2022-12-07T00:48:22;5.30;;;4.47;;
40931;SDS011;36257;46.052;12.540;2022-12-07T00:50:48;6.87;;;6.10;;
40931;SDS011;36257;46.052;12.540;2022-12-07T00:53:15;5.03;;;4.63;;
40931;SDS011;36257;46.052;12.540;2022-12-07T00:55:41;4.30;;;3.57;;
40931;SDS011;36257;46.052;12.540;2022-12-07T00:58:07;3.27;;;3.00;;
40931;SDS011;36257;46.052;12.540;2022-12-07T01:00:33;3.63;;;3.43;;
40931;SDS011;36257;46.052;12.540;2022-12-07T01:03:02;4.23;;;3.90;;
40931;SDS011;36257;46.052;12.540;2022-12-07T01:05:28;3.47;;;3.27;;
40931;SDS011;36257;46.052;12.540;2022-12-07T01:07:53;3.50;;;3.20;;
40931;SDS011;36257;46.052;12.540;2022-12-07T01:10:19;3.60;;;3.30;;
40931;SDS011;36257;46.052;12.540;2022-12-07T01:12:45;3.70;;;3.50;;
40931;SDS011;36257;46.052;12.540;2022-12-07T01:15:10;3.60;;;3.40;;
40931;SDS011;36257;46.052;12.540;2022-12-07T01:17:36;3.13;;;2.93;;
40931;SDS011;36257;46.052;12.540;2022-12-07T01:20:02;3.57;;;3.40;;
40931;SDS011;36257;46.052;12.540;2022-12-07T01:22:28;3.28;;;3.17;;
40931;SDS011;36257;46.052;12.540;2022-12-07T01:24:54;3.50;;;3.30;;
40931;SDS011;36257;46.052;12.540;2022-12-07T01:27:19;2.97;;;2.87;;
40931;SDS011;36257;46.052;12.540;2022-12-07T01:29:45;2.80;;;2.70;;
40931;SDS011;36257;46.052;12.540;2022-12-07T01:32:11;3.07;;;2.97;;
40931;SDS011;36257;46.052;12.540;2022-12-07T01:34:37;3.57;;;3.37;;
40931;SDS011;36257;46.052;12.540;2022-12-07T01:37:02;3.57;;;3.47;;
40931;SDS011;36257;46.052;12.540;2022-12-07T01:39:28;3.63;;;3.33;;
40931;SDS011;36257;46.052;12.540;2022-12-07T01:41:54;3.17;;;2.97;;
40931;SDS011;36257;46.052;12.540;2022-12-07T01:46:49;3.87;;;3.63;;
40931;SDS011;36257;46.052;12.540;2022-12-07T01:54:53;3.30;;;3.10;;
40931;SDS011;36257;46.052;12.540;2022-12-07T01:57:24;3.17;;;2.90;;
40931;SDS011;36257;46.052;12.540;2022-12-07T01:59:50;3.20;;;3.10;;
40931;SDS011;36257;46.052;12.540;2022-12-07T02:02:18;3.43;;;3.23;;
40931;SDS011;36257;46.052;12.540;2022-12-07T02:04:47;3.10;;;3.00;;
40931;SDS011;36257;46.052;12.540;2022-12-07T02:07:15;3.37;;;3.17;;
40931;SDS011;36257;46.052;12.540;2022-12-07T02:09:41;3.40;;;3.30;;
40931;SDS011;36257;46.052;12.540;2022-12-07T02:12:07;3.13;;;3.03;;
40931;SDS011;36257;46.052;12.540;2022-12-07T02:14:33;3.83;;;3.53;;
40931;SDS011;36257;46.052;12.540;2022-12-07T02:17:11;2.60;;;2.50;;
40931;SDS011;36257;46.052;12.540;2022-12-07T02:30:16;3.07;;;2.97;;
40931;SDS011;36257;46.052;12.540;2022-12-07T02:35:17;3.47;;;3.37;;
40931;SDS011;36257;46.052;12.540;2022-12-07T02:37:58;3.83;;;3.67;;
40931;SDS011;36257;46.052;12.540;2022-12-07T02:40:41;4.00;;;3.80;;
40931;SDS011;36257;46.052;12.540;2022-12-07T02:43:28;3.60;;;3.30;;
40931;SDS011;36257;46.052;12.540;2022-12-07T02:45:57;4.13;;;3.83;;
40931;SDS011;36257;46.052;12.540;2022-12-07T02:48:28;2.63;;;2.53;;
40931;SDS011;36257;46.052;12.540;2022-12-07T02:50:56;3.13;;;3.03;;
40931;SDS011;36257;46.052;12.540;2022-12-07T02:53:41;3.77;;;3.57;;
40931;SDS011;36257;46.052;12.540;2022-12-07T03:02:08;3.67;;;3.47;;
40931;SDS011;36257;46.052;12.540;2022-12-07T03:07:42;2.93;;;2.83;;
40931;SDS011;36257;46.052;12.540;2022-12-07T03:16:18;3.57;;;3.37;;
40931;SDS011;36257;46.052;12.540;2022-12-07T03:21:32;3.60;;;3.27;;
40931;SDS011;36257;46.052;12.540;2022-12-07T03:24:03;3.40;;;3.20;;
40931;SDS011;36257;46.052;12.540;2022-12-07T03:26:34;3.47;;;3.27;;
40931;SDS011;36257;46.052;12.540;2022-12-07T03:29:07;2.93;;;2.80;;
40931;SDS011;36257;46.052;12.540;2022-12-07T03:31:40;4.70;;;3.63;;
40931;SDS011;36257;46.052;12.540;2022-12-07T03:34:18;7.77;;;5.80;;
40931;SDS011;36257;46.052;12.540;2022-12-07T03:37:17;4.53;;;4.23;;
40931;SDS011;36257;46.052;12.540;2022-12-07T03:40:10;4.70;;;4.30;;
40931;SDS011;36257;46.052;12.540;2022-12-07T03:42:37;4.93;;;4.43;;
40931;SDS011;36257;46.052;12.540;2022-12-07T03:45:04;4.40;;;4.10;;
40931;SDS011;36257;46.052;12.540;2022-12-07T03:47:33;3.97;;;3.55;;
40931;SDS011;36257;46.052;12.540;2022-12-07T03:50:10;4.00;;;3.80;;
40931;SDS011;36257;46.052;12.540;2022-12-07T03:53:05;3.90;;;3.60;;
40931;SDS011;36257;46.052;12.540;2022-12-07T03:55:39;4.67;;;4.27;;
40931;SDS011;36257;46.052;12.540;2022-12-07T03:58:11;4.27;;;3.97;;
40931;SDS011;36257;46.052;12.540;2022-12-07T04:00:41;3.97;;;3.67;;
40931;SDS011;36257;46.052;12.540;2022-12-07T04:03:07;4.03;;;3.83;;
40931;SDS011;36257;46.052;12.540;2022-12-07T04:05:33;5.23;;;4.83;;
40931;SDS011;36257;46.052;12.540;2022-12-07T04:07:59;4.30;;;4.00;;
40931;SDS011;36257;46.052;12.540;2022-12-07T04:10:25;3.87;;;3.57;;
40931;SDS011;36257;46.052;12.540;2022-12-07T04:12:50;4.20;;;3.90;;
40931;SDS011;36257;46.052;12.540;2022-12-07T04:15:16;4.43;;;4.03;;
40931;SDS011;36257;46.052;12.540;2022-12-07T04:17:42;4.53;;;4.13;;
40931;SDS011;36257;46.052;12.540;2022-12-07T04:20:07;4.03;;;3.73;;
40931;SDS011;36257;46.052;12.540;2022-12-07T04:22:34;3.53;;;3.17;;
40931;SDS011;36257;46.052;12.540;2022-12-07T04:24:59;4.73;;;4.43;;
40931;SDS011;36257;46.052;12.540;2022-12-07T04:27:25;4.50;;;4.13;;
40931;SDS011;36257;46.052;12.540;2022-12-07T04:29:50;4.73;;;4.30;;
40931;SDS011;36257;46.052;12.540;2022-12-07T04:32:16;4.73;;;4.17;;
40931;SDS011;36257;46.052;12.540;2022-12-07T04:34:42;4.13;;;3.77;;
40931;SDS011;36257;46.052;12.540;2022-12-07T04:37:07;4.33;;;4.03;;
40931;SDS011;36257;46.052;12.540;2022-12-07T04:39:33;4.07;;;3.77;;
40931;SDS011;36257;46.052;12.540;2022-12-07T04:41:59;3.53;;;3.33;;
40931;SDS011;36257;46.052;12.540;2022-12-07T04:44:25;3.57;;;3.37;;
40931;SDS011;36257;46.052;12.540;2022-12-07T04:46:52;3.63;;;3.40;;
40931;SDS011;36257;46.052;12.540;2022-12-07T04:49:19;4.73;;;4.43;;
40931;SDS011;36257;46.052;12.540;2022-12-07T04:51:45;3.30;;;3.13;;
40931;SDS011;36257;46.052;12.540;2022-12-07T04:54:11;3.97;;;3.53;;
40931;SDS011;36257;46.052;12.540;2022-12-07T04:56:37;3.90;;;3.65;;
40931;SDS011;36257;46.052;12.540;2022-12-07T04:59:03;5.87;;;3.73;;
40931;SDS011;36257;46.052;12.540;2022-12-07T05:01:29;4.10;;;3.67;;
40931;SDS011;36257;46.052;12.540;2022-12-07T05:03:56;6.03;;;3.80;;
40931;SDS011;36257;46.052;12.540;2022-12-07T05:06:21;3.57;;;3.30;;
40931;SDS011;36257;46.052;12.540;2022-12-07T05:08:47;3.33;;;3.13;;
40931;SDS011;36257;46.052;12.540;2022-12-07T05:11:13;4.10;;;3.90;;
40931;SDS011;36257;46.052;12.540;2022-12-07T05:13:59;4.60;;;4.30;;
40931;SDS011;36257;46.052;12.540;2022-12-07T05:16:25;6.73;;;4.80;;
40931;SDS011;36257;46.052;12.540;2022-12-07T05:18:52;5.23;;;4.73;;
40931;SDS011;36257;46.052;12.540;2022-12-07T05:21:17;8.67;;;7.33;;
40931;SDS011;36257;46.052;12.540;2022-12-07T05:23:43;5.27;;;4.80;;
40931;SDS011;36257;46.052;12.540;2022-12-07T05:26:09;4.50;;;4.03;;
40931;SDS011;36257;46.052;12.540;2022-12-07T05:28:35;4.07;;;3.83;;
40931;SDS011;36257;46.052;12.540;2022-12-07T05:31:00;4.73;;;4.53;;
40931;SDS011;36257;46.052;12.540;2022-12-07T05:33:26;4.20;;;3.90;;
40931;SDS011;36257;46.052;12.540;2022-12-07T05:35:51;4.00;;;3.80;;
40931;SDS011;36257;46.052;12.540;2022-12-07T05:38:17;4.43;;;4.17;;
40931;SDS011;36257;46.052;12.540;2022-12-07T05:40:43;3.47;;;3.37;;
40931;SDS011;36257;46.052;12.540;2022-12-07T05:43:08;4.57;;;4.27;;
40931;SDS011;36257;46.052;12.540;2022-12-07T05:45:35;4.83;;;4.53;;
40931;SDS011;36257;46.052;12.540;2022-12-07T05:48:01;4.07;;;3.87;;
40931;SDS011;36257;46.052;12.540;2022-12-07T05:50:26;3.90;;;3.70;;
40931;SDS011;36257;46.052;12.540;2022-12-07T05:52:53;3.83;;;3.53;;
40931;SDS011;36257;46.052;12.540;2022-12-07T05:55:19;3.90;;;3.70;;
40931;SDS011;36257;46.052;12.540;2022-12-07T05:57:44;4.03;;;3.73;;
40931;SDS011;36257;46.052;12.540;2022-12-07T06:00:30;3.87;;;3.57;;
40931;SDS011;36257;46.052;12.540;2022-12-07T06:02:56;4.80;;;4.20;;
40931;SDS011;36257;46.052;12.540;2022-12-07T06:05:22;4.40;;;4.20;;
40931;SDS011;36257;46.052;12.540;2022-12-07T06:07:47;5.07;;;4.77;;
40931;SDS011;36257;46.052;12.540;2022-12-07T06:10:13;3.67;;;3.37;;
40931;SDS011;36257;46.052;12.540;2022-12-07T06:12:38;4.03;;;3.83;;
40931;SDS011;36257;46.052;12.540;2022-12-07T06:15:07;3.27;;;3.17;;
40931;SDS011;36257;46.052;12.540;2022-12-07T06:17:34;4.18;;;3.97;;
40931;SDS011;36257;46.052;12.540;2022-12-07T06:19:59;3.43;;;3.13;;
40931;SDS011;36257;46.052;12.540;2022-12-07T06:22:25;3.93;;;3.73;;
40931;SDS011;36257;46.052;12.540;2022-12-07T06:24:51;3.50;;;3.30;;
40931;SDS011;36257;46.052;12.540;2022-12-07T06:27:16;4.27;;;3.97;;
40931;SDS011;36257;46.052;12.540;2022-12-07T06:29:42;3.43;;;3.23;;
40931;SDS011;36257;46.052;12.540;2022-12-07T06:32:08;4.27;;;4.00;;
40931;SDS011;36257;46.052;12.540;2022-12-07T06:34:34;3.07;;;2.97;;
40931;SDS011;36257;46.052;12.540;2022-12-07T06:36:59;4.80;;;4.47;;
40931;SDS011;36257;46.052;12.540;2022-12-07T06:39:26;4.17;;;3.97;;
40931;SDS011;36257;46.052;12.540;2022-12-07T06:44:19;4.73;;;4.33;;
40931;SDS011;36257;46.052;12.540;2022-12-07T06:46:46;4.63;;;4.28;;
40931;SDS011;36257;46.052;12.540;2022-12-07T06:49:12;4.30;;;4.10;;
40931;SDS011;36257;46.052;12.540;2022-12-07T06:51:38;5.00;;;4.50;;
40931;SDS011;36257;46.052;12.540;2022-12-07T06:54:07;4.37;;;4.07;;
40931;SDS011;36257;46.052;12.540;2022-12-07T06:56:37;3.67;;;3.47;;
40931;SDS011;36257;46.052;12.540;2022-12-07T06:59:03;5.63;;;5.13;;
40931;SDS011;36257;46.052;12.540;2022-12-07T07:01:31;4.10;;;3.80;;
40931;SDS011;36257;46.052;12.540;2022-12-07T07:03:57;3.70;;;3.50;;
40931;SDS011;36257;46.052;12.540;2022-12-07T07:06:22;3.30;;;3.20;;
40931;SDS011;36257;46.052;12.540;2022-12-07T07:08:48;3.00;;;2.90;;
40931;SDS011;36257;46.052;12.540;2022-12-07T07:11:14;3.50;;;3.30;;
40931;SDS011;36257;46.052;12.540;2022-12-07T07:13:39;3.67;;;3.47;;
40931;SDS011;36257;46.052;12.540;2022-12-07T07:16:05;3.23;;;3.13;;
40931;SDS011;36257;46.052;12.540;2022-12-07T07:18:31;4.23;;;3.60;;
40931;SDS011;36257;46.052;12.540;2022-12-07T07:20:57;3.63;;;3.43;;
40931;SDS011;36257;46.052;12.540;2022-12-07T07:23:23;3.60;;;3.40;;
40931;SDS011;36257;46.052;12.540;2022-12-07T07:25:49;3.13;;;2.97;;
40931;SDS011;36257;46.052;12.540;2022-12-07T07:28:14;2.97;;;2.77;;
40931;SDS011;36257;46.052;12.540;2022-12-07T07:30:41;3.57;;;3.47;;
40931;SDS011;36257;46.052;12.540;2022-12-07T07:33:06;3.30;;;3.00;;
40931;SDS011;36257;46.052;12.540;2022-12-07T07:35:32;3.40;;;3.20;;
40931;SDS011;36257;46.052;12.540;2022-12-07T07:37:59;3.33;;;3.13;;
40931;SDS011;36257;46.052;12.540;2022-12-07T07:40:26;3.03;;;2.93;;
40931;SDS011;36257;46.052;12.540;2022-12-07T07:45:19;3.43;;;3.23;;
40931;SDS011;36257;46.052;12.540;2022-12-07T07:47:46;2.90;;;2.70;;
40931;SDS011;36257;46.052;12.540;2022-12-07T07:50:12;3.03;;;2.83;;
40931;SDS011;36257;46.052;12.540;2022-12-07T07:52:38;2.93;;;2.80;;
40931;SDS011;36257;46.052;12.540;2022-12-07T07:55:03;3.60;;;2.97;;
40931;SDS011;36257;46.052;12.540;2022-12-07T07:57:30;3.50;;;3.30;;
40931;SDS011;36257;46.052;12.540;2022-12-07T07:59:55;3.53;;;3.17;;
40931;SDS011;36257;46.052;12.540;2022-12-07T08:02:21;3.10;;;2.90;;
40931;SDS011;36257;46.052;12.540;2022-12-07T08:04:47;3.20;;;2.80;;
40931;SDS011;36257;46.052;12.540;2022-12-07T08:07:13;3.90;;;3.60;;
40931;SDS011;36257;46.052;12.540;2022-12-07T08:09:40;5.20;;;4.73;;
40931;SDS011;36257;46.052;12.540;2022-12-07T08:12:06;6.17;;;4.67;;
40931;SDS011;36257;46.052;12.540;2022-12-07T08:14:32;6.73;;;6.03;;
40931;SDS011;36257;46.052;12.540;2022-12-07T08:16:57;7.37;;;5.17;;
40931;SDS011;36257;46.052;12.540;2022-12-07T08:19:23;7.30;;;5.20;;
40931;SDS011;36257;46.052;12.540;2022-12-07T08:21:49;8.17;;;5.50;;
40931;SDS011;36257;46.052;12.540;2022-12-07T08:24:15;14.25;;;5.70;;
40931;SDS011;36257;46.052;12.540;2022-12-07T08:26:41;5.90;;;4.78;;
40931;SDS011;36257;46.052;12.540;2022-12-07T08:29:07;6.13;;;5.53;;
40931;SDS011;36257;46.052;12.540;2022-12-07T08:31:33;5.20;;;4.70;;
40931;SDS011;36257;46.052;12.540;2022-12-07T08:33:59;4.55;;;4.15;;
40931;SDS011;36257;46.052;12.540;2022-12-07T08:36:25;4.80;;;4.28;;
40931;SDS011;36257;46.052;12.540;2022-12-07T08:38:50;4.60;;;3.63;;
40931;SDS011;36257;46.052;12.540;2022-12-07T08:41:16;3.83;;;3.33;;
40931;SDS011;36257;46.052;12.540;2022-12-07T08:43:42;3.70;;;3.25;;
40931;SDS011;36257;46.052;12.540;2022-12-07T08:48:33;3.28;;;2.65;;
40931;SDS011;36257;46.052;12.540;2022-12-07T08:51:04;2.58;;;2.38;;
40931;SDS011;36257;46.052;12.540;2022-12-07T08:53:30;3.17;;;2.90;;
40931;SDS011;36257;46.052;12.540;2022-12-07T08:55:58;3.17;;;2.42;;
40931;SDS011;36257;46.052;12.540;2022-12-07T08:58:24;3.10;;;2.90;;
40931;SDS011;36257;46.052;12.540;2022-12-07T09:00:50;10.55;;;3.65;;
40931;SDS011;36257;46.052;12.540;2022-12-07T09:03:15;3.15;;;2.70;;
40931;SDS011;36257;46.052;12.540;2022-12-07T09:05:41;3.00;;;2.58;;
40931;SDS011;36257;46.052;12.540;2022-12-07T09:08:07;5.10;;;2.13;;
40931;SDS011;36257;46.052;12.540;2022-12-07T09:10:33;4.25;;;2.45;;
40931;SDS011;36257;46.052;12.540;2022-12-07T09:12:58;3.13;;;2.22;;
40931;SDS011;36257;46.052;12.540;2022-12-07T09:15:27;4.07;;;3.40;;
40931;SDS011;36257;46.052;12.540;2022-12-07T09:17:54;4.40;;;2.85;;
40931;SDS011;36257;46.052;12.540;2022-12-07T09:20:20;3.92;;;3.13;;
40931;SDS011;36257;46.052;12.540;2022-12-07T09:22:46;4.20;;;3.75;;
40931;SDS011;36257;46.052;12.540;2022-12-07T09:25:12;5.05;;;4.10;;
40931;SDS011;36257;46.052;12.540;2022-12-07T09:27:37;4.90;;;3.97;;
40931;SDS011;36257;46.052;12.540;2022-12-07T09:30:04;4.25;;;3.50;;
40931;SDS011;36257;46.052;12.540;2022-12-07T09:32:30;6.90;;;4.38;;
40931;SDS011;36257;46.052;12.540;2022-12-07T09:34:56;4.00;;;3.60;;
40931;SDS011;36257;46.052;12.540;2022-12-07T09:37:22;3.90;;;3.50;;
40931;SDS011;36257;46.052;12.540;2022-12-07T09:39:47;4.07;;;3.67;;
40931;SDS011;36257;46.052;12.540;2022-12-07T09:44:57;5.80;;;3.95;;
40931;SDS011;36257;46.052;12.540;2022-12-07T09:47:24;3.10;;;2.90;;
40931;SDS011;36257;46.052;12.540;2022-12-07T09:49:50;3.38;;;3.05;;
40931;SDS011;36257;46.052;12.540;2022-12-07T09:52:17;3.65;;;3.20;;
40931;SDS011;36257;46.052;12.540;2022-12-07T09:54:46;3.60;;;3.05;;
40931;SDS011;36257;46.052;12.540;2022-12-07T09:57:14;4.47;;;3.03;;
40931;SDS011;36257;46.052;12.540;2022-12-07T09:59:40;1.92;;;1.80;;
40931;SDS011;36257;46.052;12.540;2022-12-07T10:04:59;2.65;;;2.03;;
40931;SDS011;36257;46.052;12.540;2022-12-07T10:07:25;6.97;;;2.78;;
40931;SDS011;36257;46.052;12.540;2022-12-07T10:09:51;14.13;;;4.28;;
40931;SDS011;36257;46.052;12.540;2022-12-07T10:12:16;4.60;;;1.95;;
40931;SDS011;36257;46.052;12.540;2022-12-07T10:22:54;2.13;;;1.42;;
40931;SDS011;36257;46.052;12.540;2022-12-07T10:25:22;8.15;;;1.77;;
40931;SDS011;36257;46.052;12.540;2022-12-07T10:28:00;1.70;;;1.60;;
40931;SDS011;36257;46.052;12.540;2022-12-07T10:33:29;1.60;;;1.48;;
40931;SDS011;36257;46.052;12.540;2022-12-07T10:38:46;1.33;;;1.23;;
40931;SDS011;36257;46.052;12.540;2022-12-07T10:41:23;1.70;;;1.55;;
40931;SDS011;36257;46.052;12.540;2022-12-07T10:43:50;3.50;;;1.77;;
40931;SDS011;36257;46.052;12.540;2022-12-07T10:54:31;2.25;;;1.58;;
40931;SDS011;36257;46.052;12.540;2022-12-07T11:02:25;1.23;;;1.13;;
40931;SDS011;36257;46.052;12.540;2022-12-07T11:07:38;1.48;;;0.80;;
40931;SDS011;36257;46.052;12.540;2022-12-07T11:13:32;1.40;;;1.30;;
40931;SDS011;36257;46.052;12.540;2022-12-07T11:24:11;2.13;;;1.20;;
40931;SDS011;36257;46.052;12.540;2022-12-07T11:37:31;2.67;;;2.10;;
40931;SDS011;36257;46.052;12.540;2022-12-07T11:40:03;2.25;;;2.00;;
40931;SDS011;36257;46.052;12.540;2022-12-07T11:42:41;2.33;;;2.10;;
40931;SDS011;36257;46.052;12.540;2022-12-07T12:03:43;3.60;;;3.30;;
40931;SDS011;36257;46.052;12.540;2022-12-07T12:06:15;3.22;;;2.85;;
40931;SDS011;36257;46.052;12.540;2022-12-07T12:11:37;3.60;;;2.90;;
40931;SDS011;36257;46.052;12.540;2022-12-07T12:14:24;4.57;;;3.70;;
40931;SDS011;36257;46.052;12.540;2022-12-07T12:22:37;6.75;;;3.67;;
40931;SDS011;36257;46.052;12.540;2022-12-07T12:25:15;3.92;;;3.47;;
40931;SDS011;36257;46.052;12.540;2022-12-07T12:27:50;5.38;;;3.90;;
40931;SDS011;36257;46.052;12.540;2022-12-07T12:33:30;4.20;;;3.75;;
40931;SDS011;36257;46.052;12.540;2022-12-07T12:38:50;6.28;;;4.25;;
40931;SDS011;36257;46.052;12.540;2022-12-07T12:51:57;7.15;;;3.58;;
40931;SDS011;36257;46.052;12.540;2022-12-07T12:54:32;4.78;;;3.05;;
40931;SDS011;36257;46.052;12.540;2022-12-07T12:57:10;5.65;;;3.30;;
40931;SDS011;36257;46.052;12.540;2022-12-07T13:02:36;3.20;;;2.90;;
40931;SDS011;36257;46.052;12.540;2022-12-07T13:07:59;3.92;;;3.33;;
40931;SDS011;36257;46.052;12.540;2022-12-07T13:15:51;2.85;;;2.55;;
40931;SDS011;36257;46.052;12.540;2022-12-07T13:28:33;2.75;;;2.03;;
40931;SDS011;36257;46.052;12.540;2022-12-07T13:31:12;2.63;;;2.20;;
40931;SDS011;36257;46.052;12.540;2022-12-07T13:33:50;3.08;;;1.73;;
40931;SDS011;36257;46.052;12.540;2022-12-07T13:36:26;2.33;;;1.73;;
40931;SDS011;36257;46.052;12.540;2022-12-07T13:38:57;2.25;;;1.58;;
40931;SDS011;36257;46.052;12.540;2022-12-07T13:41:28;1.70;;;1.60;;
40931;SDS011;36257;46.052;12.540;2022-12-07T13:44:02;3.67;;;1.77;;
40931;SDS011;36257;46.052;12.540;2022-12-07T13:49:37;3.45;;;1.95;;
40931;SDS011;36257;46.052;12.540;2022-12-07T13:54:45;2.28;;;1.83;;
40931;SDS011;36257;46.052;12.540;2022-12-07T13:57:25;1.98;;;1.77;;
40931;SDS011;36257;46.052;12.540;2022-12-07T13:59:52;6.40;;;1.88;;
40931;SDS011;36257;46.052;12.540;2022-12-07T14:02:24;3.20;;;1.60;;
40931;SDS011;36257;46.052;12.540;2022-12-07T14:05:22;1.70;;;1.50;;
40931;SDS011;36257;46.052;12.540;2022-12-07T14:10:27;3.13;;;1.92;;
40931;SDS011;36257;46.052;12.540;2022-12-07T14:13:34;1.65;;;1.55;;
40931;SDS011;36257;46.052;12.540;2022-12-07T14:16:01;5.70;;;2.10;;
40931;SDS011;36257;46.052;12.540;2022-12-07T14:18:38;4.28;;;2.50;;
40931;SDS011;36257;46.052;12.540;2022-12-07T14:21:06;2.25;;;2.05;;
40931;SDS011;36257;46.052;12.540;2022-12-07T14:23:43;2.33;;;2.03;;
40931;SDS011;36257;46.052;12.540;2022-12-07T14:26:26;7.78;;;2.75;;
40931;SDS011;36257;46.052;12.540;2022-12-07T14:28:52;3.05;;;2.50;;
40931;SDS011;36257;46.052;12.540;2022-12-07T14:31:18;4.43;;;3.75;;
40931;SDS011;36257;46.052;12.540;2022-12-07T14:33:49;2.97;;;2.53;;
40931;SDS011;36257;46.052;12.540;2022-12-07T14:36:14;6.60;;;2.67;;
40931;SDS011;36257;46.052;12.540;2022-12-07T14:38:40;4.35;;;3.85;;
40931;SDS011;36257;46.052;12.540;2022-12-07T14:41:09;7.60;;;5.90;;
40931;SDS011;36257;46.052;12.540;2022-12-07T14:43:58;67.35;;;36.95;;
40931;SDS011;36257;46.052;12.540;2022-12-07T14:46:24;62.40;;;32.88;;
40931;SDS011;36257;46.052;12.540;2022-12-07T14:48:49;49.35;;;25.95;;
40931;SDS011;36257;46.052;12.540;2022-12-07T14:51:15;14.77;;;7.72;;
40931;SDS011;36257;46.052;12.540;2022-12-07T14:53:42;29.80;;;12.32;;
40931;SDS011;36257;46.052;12.540;2022-12-07T14:56:13;53.17;;;25.38;;
40931;SDS011;36257;46.052;12.540;2022-12-07T14:58:38;28.58;;;14.13;;
40931;SDS011;36257;46.052;12.540;2022-12-07T15:01:05;27.35;;;15.70;;
40931;SDS011;36257;46.052;12.540;2022-12-07T15:03:30;21.23;;;11.57;;
40931;SDS011;36257;46.052;12.540;2022-12-07T15:05:56;13.90;;;7.60;;
40931;SDS011;36257;46.052;12.540;2022-12-07T15:08:22;8.38;;;6.03;;
40931;SDS011;36257;46.052;12.540;2022-12-07T15:10:48;5.80;;;4.43;;
40931;SDS011;36257;46.052;12.540;2022-12-07T15:13:14;5.18;;;3.50;;
40931;SDS011;36257;46.052;12.540;2022-12-07T15:15:59;3.92;;;3.33;;
40931;SDS011;36257;46.052;12.540;2022-12-07T15:18:25;3.38;;;3.00;;
40931;SDS011;36257;46.052;12.540;2022-12-07T15:20:50;4.05;;;3.60;;
40931;SDS011;36257;46.052;12.540;2022-12-07T15:23:16;6.38;;;4.03;;
40931;SDS011;36257;46.052;12.540;2022-12-07T15:25:45;10.27;;;7.30;;
40931;SDS011;36257;46.052;12.540;2022-12-07T15:28:13;7.10;;;6.20;;
40931;SDS011;36257;46.052;12.540;2022-12-07T15:30:39;4.93;;;4.43;;
40931;SDS011;36257;46.052;12.540;2022-12-07T15:33:10;4.45;;;4.03;;
40931;SDS011;36257;46.052;12.540;2022-12-07T15:35:40;4.80;;;3.38;;
40931;SDS011;36257;46.052;12.540;2022-12-07T15:38:10;3.85;;;3.53;;
40931;SDS011;36257;46.052;12.540;2022-12-07T15:40:36;5.22;;;4.72;;
40931;SDS011;36257;46.052;12.540;2022-12-07T15:43:02;15.73;;;10.48;;
40931;SDS011;36257;46.052;12.540;2022-12-07T15:45:29;17.98;;;12.15;;
40931;SDS011;36257;46.052;12.540;2022-12-07T15:47:54;10.65;;;7.63;;
40931;SDS011;36257;46.052;12.540;2022-12-07T15:50:20;9.70;;;7.68;;
40931;SDS011;36257;46.052;12.540;2022-12-07T15:52:46;8.35;;;7.05;;
40931;SDS011;36257;46.052;12.540;2022-12-07T15:55:14;16.40;;;9.50;;
40931;SDS011;36257;46.052;12.540;2022-12-07T15:57:40;7.18;;;5.53;;
40931;SDS011;36257;46.052;12.540;2022-12-07T16:00:07;4.50;;;4.10;;
40931;SDS011;36257;46.052;12.540;2022-12-07T16:02:36;13.85;;;8.95;;
40931;SDS011;36257;46.052;12.540;2022-12-07T16:05:01;11.40;;;8.55;;
40931;SDS011;36257;46.052;12.540;2022-12-07T16:07:27;11.50;;;9.75;;
40931;SDS011;36257;46.052;12.540;2022-12-07T16:09:53;9.20;;;8.30;;
40931;SDS011;36257;46.052;12.540;2022-12-07T16:12:19;4.93;;;4.50;;
40931;SDS011;36257;46.052;12.540;2022-12-07T16:14:44;9.25;;;4.00;;
40931;SDS011;36257;46.052;12.540;2022-12-07T16:17:10;4.60;;;4.30;;
40931;SDS011;36257;46.052;12.540;2022-12-07T16:19:36;4.30;;;4.00;;
40931;SDS011;36257;46.052;12.540;2022-12-07T16:22:04;5.05;;;4.75;;
40931;SDS011;36257;46.052;12.540;2022-12-07T16:24:33;3.97;;;3.78;;
40931;SDS011;36257;46.052;12.540;2022-12-07T16:26:59;4.47;;;4.07;;
40931;SDS011;36257;46.052;12.540;2022-12-07T16:29:24;7.37;;;5.50;;
40931;SDS011;36257;46.052;12.540;2022-12-07T16:31:50;6.77;;;4.97;;
40931;SDS011;36257;46.052;12.540;2022-12-07T16:34:16;6.50;;;5.03;;
40931;SDS011;36257;46.052;12.540;2022-12-07T16:36:42;4.47;;;4.07;;
40931;SDS011;36257;46.052;12.540;2022-12-07T16:39:08;3.90;;;3.60;;
40931;SDS011;36257;46.052;12.540;2022-12-07T16:41:34;9.70;;;6.63;;
40931;SDS011;36257;46.052;12.540;2022-12-07T16:44:10;15.70;;;8.10;;
40931;SDS011;36257;46.052;12.540;2022-12-07T16:46:37;13.75;;;8.15;;
40931;SDS011;36257;46.052;12.540;2022-12-07T16:49:03;9.30;;;6.27;;
40931;SDS011;36257;46.052;12.540;2022-12-07T16:51:29;14.90;;;12.63;;
40931;SDS011;36257;46.052;12.540;2022-12-07T16:53:56;7.80;;;7.03;;
40931;SDS011;36257;46.052;12.540;2022-12-07T16:56:21;8.17;;;6.60;;
40931;SDS011;36257;46.052;12.540;2022-12-07T16:58:47;4.80;;;4.40;;
40931;SDS011;36257;46.052;12.540;2022-12-07T17:01:21;4.30;;;4.00;;
40931;SDS011;36257;46.052;12.540;2022-12-07T17:03:47;4.27;;;3.97;;
40931;SDS011;36257;46.052;12.540;2022-12-07T17:06:21;6.33;;;5.73;;
40931;SDS011;36257;46.052;12.540;2022-12-07T17:08:48;9.23;;;8.37;;
40931;SDS011;36257;46.052;12.540;2022-12-07T17:11:16;6.07;;;5.57;;
40931;SDS011;36257;46.052;12.540;2022-12-07T17:13:46;5.60;;;5.10;;
40931;SDS011;36257;46.052;12.540;2022-12-07T17:16:31;5.80;;;5.20;;
40931;SDS011;36257;46.052;12.540;2022-12-07T17:18:57;5.67;;;5.07;;
40931;SDS011;36257;46.052;12.540;2022-12-07T17:21:22;4.33;;;4.03;;
40931;SDS011;36257;46.052;12.540;2022-12-07T17:23:48;4.70;;;4.30;;
40931;SDS011;36257;46.052;12.540;2022-12-07T17:26:19;4.03;;;3.70;;
40931;SDS011;36257;46.052;12.540;2022-12-07T17:28:48;4.90;;;4.60;;
40931;SDS011;36257;46.052;12.540;2022-12-07T17:31:14;4.93;;;4.47;;
40931;SDS011;36257;46.052;12.540;2022-12-07T17:36:14;4.60;;;4.23;;
40931;SDS011;36257;46.052;12.540;2022-12-07T17:38:44;5.47;;;4.40;;
40931;SDS011;36257;46.052;12.540;2022-12-07T17:41:15;4.27;;;3.97;;